createdAt,value
2023-05-06T00:01:19.534Z,96890.81
2023-05-06T00:03:46.694Z,96893.09
2023-05-06T00:06:13.742Z,96885.53
2023-05-06T00:08:40.590Z,96885.94
2023-05-06T00:11:07.426Z,96881.94
2023-05-06T00:13:34.244Z,96886.72
2023-05-06T00:16:01.113Z,96878.16
2023-05-06T00:18:27.976Z,96881.25
2023-05-06T00:20:54.865Z,96871.66
2023-05-06T00:23:21.785Z,96871.00
2023-05-06T00:25:48.574Z,96867.81
2023-05-06T00:28:15.422Z,96868.19
2023-05-06T00:30:42.210Z,96872.13
2023-05-06T00:33:09.018Z,96865.44
2023-05-06T00:35:35.909Z,96863.09
2023-05-06T00:38:15.336Z,96867.59
2023-05-06T00:40:42.944Z,96868.47
2023-05-06T00:43:09.942Z,96865.09
2023-05-06T00:45:37.153Z,96867.19
2023-05-06T00:48:06.644Z,96865.03
2023-05-06T00:50:34.808Z,96867.94
2023-05-06T00:53:04.305Z,96866.28
2023-05-06T00:55:31.788Z,96863.75
2023-05-06T00:57:59.023Z,96867.47
2023-05-06T01:00:28.272Z,96861.44
2023-05-06T01:02:55.253Z,96867.03
2023-05-06T01:05:26.265Z,96864.53
2023-05-06T01:08:10.537Z,96861.56
2023-05-06T01:10:53.885Z,96865.31
2023-05-06T01:13:30.559Z,96866.13
2023-05-06T01:16:00.708Z,96870.50
2023-05-06T01:18:32.557Z,96866.13
2023-05-06T01:21:01.794Z,96863.44
2023-05-06T01:23:29.047Z,96868.84
2023-05-06T01:25:55.989Z,96872.19
2023-05-06T01:28:22.842Z,96878.63
2023-05-06T01:30:52.587Z,96871.94
2023-05-06T01:33:25.919Z,96871.22
2023-05-06T01:36:12.491Z,96870.84
2023-05-06T01:38:59.841Z,96871.84
2023-05-06T01:41:27.997Z,96879.38
2023-05-06T01:43:56.725Z,96871.47
2023-05-06T01:46:25.262Z,96873.34
2023-05-06T01:48:55.185Z,96875.22
2023-05-06T01:51:23.628Z,96873.13
2023-05-06T01:53:50.540Z,96868.56
2023-05-06T01:56:17.838Z,96863.81
2023-05-06T01:58:44.641Z,96870.25
2023-05-06T02:01:11.532Z,96867.72
2023-05-06T02:03:40.365Z,96868.75
2023-05-06T02:06:07.898Z,96870.84
2023-05-06T02:08:39.048Z,96871.50
2023-05-06T02:11:06.573Z,96863.25
2023-05-06T02:13:33.617Z,96865.34
2023-05-06T02:16:01.085Z,96853.03
2023-05-06T02:18:28.611Z,96861.34
2023-05-06T02:20:56.258Z,96861.53
2023-05-06T02:23:23.047Z,96862.75
2023-05-06T02:25:50.196Z,96868.53
2023-05-06T02:28:17.055Z,96863.31
2023-05-06T02:30:44.005Z,96864.34
2023-05-06T02:33:11.014Z,96866.59
2023-05-06T02:35:38.030Z,96861.56
2023-05-06T02:38:04.845Z,96858.59
2023-05-06T02:40:31.655Z,96857.31
2023-05-06T02:42:58.828Z,96858.88
2023-05-06T02:45:25.718Z,96862.13
2023-05-06T02:47:53.002Z,96860.81
2023-05-06T02:50:19.897Z,96857.69
2023-05-06T02:52:46.766Z,96860.75
2023-05-06T02:55:13.593Z,96857.78
2023-05-06T02:57:40.472Z,96855.44
2023-05-06T03:00:11.119Z,96856.84
2023-05-06T03:02:38.006Z,96860.09
2023-05-06T03:05:05.626Z,96863.19
2023-05-06T03:07:32.782Z,96856.66
2023-05-06T03:09:59.740Z,96857.22
2023-05-06T03:12:26.767Z,96856.75
2023-05-06T03:14:53.709Z,96857.31
2023-05-06T03:17:21.639Z,96846.88
2023-05-06T03:19:50.489Z,96848.28
2023-05-06T03:22:17.870Z,96851.31
2023-05-06T03:24:46.498Z,96857.09
2023-05-06T03:27:13.680Z,96849.53
2023-05-06T03:29:41.804Z,96852.63
2023-05-06T03:32:10.641Z,96851.34
2023-05-06T03:34:42.167Z,96857.09
2023-05-06T03:37:12.782Z,96852.06
2023-05-06T03:39:45.477Z,96837.03
2023-05-06T03:42:12.574Z,96845.34
2023-05-06T03:44:39.532Z,96842.16
2023-05-06T03:47:07.081Z,96836.47
2023-05-06T03:49:34.856Z,96839.53
2023-05-06T03:52:05.711Z,96843.13
2023-05-06T03:54:32.918Z,96838.75
2023-05-06T03:57:03.356Z,96847.59
2023-05-06T03:59:31.785Z,96848.78
2023-05-06T04:02:00.150Z,96846.63
2023-05-06T04:04:28.339Z,96842.41
2023-05-06T04:06:56.353Z,96843.81
2023-05-06T04:09:24.557Z,96850.56
2023-05-06T04:11:52.648Z,96846.75
2023-05-06T04:14:19.746Z,96842.25
2023-05-06T04:16:46.926Z,96844.19
2023-05-06T04:19:14.263Z,96834.28
2023-05-06T04:21:41.108Z,96839.56
2023-05-06T04:24:11.634Z,96840.47
2023-05-06T04:26:39.871Z,96853.44
2023-05-06T04:29:07.896Z,96852.97
2023-05-06T04:31:40.612Z,96852.66
2023-05-06T04:34:11.114Z,96854.03
2023-05-06T04:36:40.067Z,96852.84
2023-05-06T04:39:14.526Z,96853.38
2023-05-06T04:41:41.786Z,96862.84
2023-05-06T04:44:10.250Z,96860.34
2023-05-06T04:46:37.280Z,96858.66
2023-05-06T04:49:04.209Z,96867.59
2023-05-06T04:51:31.807Z,96865.72
2023-05-06T04:54:00.173Z,96870.09
2023-05-06T04:56:27.678Z,96869.94
2023-05-06T04:58:54.857Z,96875.97
2023-05-06T05:01:22.262Z,96879.34
2023-05-06T05:03:50.526Z,96880.69
2023-05-06T05:06:20.129Z,96879.31
2023-05-06T05:08:47.921Z,96881.63
2023-05-06T05:11:15.496Z,96886.69
2023-05-06T05:13:43.161Z,96894.22
2023-05-06T05:16:10.032Z,96887.31
2023-05-06T05:18:40.693Z,96883.91
2023-05-06T05:21:16.021Z,96883.34
2023-05-06T05:23:43.019Z,96887.03
2023-05-06T05:26:10.370Z,96884.44
2023-05-06T05:28:38.425Z,96888.13
2023-05-06T05:31:06.334Z,96896.50
2023-05-06T05:33:36.270Z,96891.06
2023-05-06T05:36:06.515Z,96895.56
2023-05-06T05:38:34.373Z,96895.50
2023-05-06T05:41:04.402Z,96892.72
2023-05-06T05:43:31.439Z,96898.94
2023-05-06T05:46:00.354Z,96893.31
2023-05-06T05:48:27.417Z,96895.94
2023-05-06T05:50:55.091Z,96895.66
2023-05-06T05:53:24.184Z,96897.06
2023-05-06T05:55:51.274Z,96899.31
2023-05-06T05:58:18.962Z,96901.72
2023-05-06T06:00:45.930Z,96894.22
2023-05-06T06:03:18.238Z,96899.63
2023-05-06T06:05:45.496Z,96900.06
2023-05-06T06:08:13.296Z,96897.47
2023-05-06T06:10:42.008Z,96894.50
2023-05-06T06:13:14.720Z,96895.22
2023-05-06T06:15:44.106Z,96905.94
2023-05-06T06:18:11.668Z,96902.28
2023-05-06T06:20:39.707Z,96899.47
2023-05-06T06:23:11.360Z,96906.66
2023-05-06T06:25:38.537Z,96901.94
2023-05-06T06:28:08.025Z,96916.19
2023-05-06T06:30:35.340Z,96912.91
2023-05-06T06:33:02.493Z,96921.94
2023-05-06T06:35:30.231Z,96917.25
2023-05-06T06:38:04.677Z,96921.50
2023-05-06T06:40:31.735Z,96916.00
2023-05-06T06:42:59.031Z,96913.34
2023-05-06T06:45:48.366Z,96916.31
2023-05-06T06:48:16.502Z,96922.25
2023-05-06T06:50:43.379Z,96915.84
2023-05-06T06:53:12.787Z,96921.09
2023-05-06T06:55:55.839Z,96920.56
2023-05-06T06:58:23.119Z,96925.66
2023-05-06T07:00:50.416Z,96929.91
2023-05-06T07:03:19.317Z,96921.41
2023-05-06T07:05:47.085Z,96928.56
2023-05-06T07:08:17.471Z,96929.88
2023-05-06T07:10:44.850Z,96931.22
2023-05-06T07:13:12.131Z,96935.03
2023-05-06T07:15:39.304Z,96925.50
2023-05-06T07:18:06.517Z,96927.81
2023-05-06T07:20:34.023Z,96929.97
2023-05-06T07:23:01.132Z,96929.38
2023-05-06T07:25:28.162Z,96935.25
2023-05-06T07:27:55.116Z,96930.28
2023-05-06T07:30:23.277Z,96931.59
2023-05-06T07:32:51.457Z,96925.97
2023-05-06T07:35:19.125Z,96925.94
2023-05-06T07:37:46.953Z,96921.78
2023-05-06T07:40:13.903Z,96925.75
2023-05-06T07:42:43.003Z,96929.13
2023-05-06T07:45:11.025Z,96927.00
2023-05-06T07:47:38.472Z,96935.81
2023-05-06T07:50:06.871Z,96932.69
2023-05-06T07:52:34.583Z,96938.31
2023-05-06T07:55:02.702Z,96929.97
2023-05-06T07:57:30.001Z,96933.53
2023-05-06T07:59:58.476Z,96940.63
2023-05-06T08:02:25.525Z,96938.34
2023-05-06T08:04:52.982Z,96942.75
2023-05-06T08:07:19.994Z,96949.22
2023-05-06T08:09:46.978Z,96947.75
2023-05-06T08:12:15.702Z,96950.25
2023-05-06T08:14:42.487Z,96950.88
2023-05-06T08:17:09.268Z,96952.97
2023-05-06T08:19:36.132Z,96949.00
2023-05-06T08:22:02.963Z,96942.28
2023-05-06T08:24:29.750Z,96941.88
2023-05-06T08:26:56.550Z,96945.19
2023-05-06T08:29:23.651Z,96946.44
2023-05-06T08:31:50.678Z,96939.34
2023-05-06T08:34:20.103Z,96938.06
2023-05-06T08:36:48.430Z,96946.22
2023-05-06T08:39:15.233Z,96945.34
2023-05-06T08:41:48.337Z,96947.84
2023-05-06T08:44:18.977Z,96950.34
2023-05-06T08:46:50.036Z,96944.06
2023-05-06T08:49:17.364Z,96945.25
2023-05-06T08:51:44.834Z,96949.63
2023-05-06T08:54:12.907Z,96947.72
2023-05-06T08:56:45.813Z,96953.16
2023-05-06T08:59:13.897Z,96943.88
2023-05-06T09:01:41.562Z,96953.28
2023-05-06T09:04:10.326Z,96953.28
2023-05-06T09:06:37.357Z,96949.28
2023-05-06T09:09:04.439Z,96953.25
2023-05-06T09:11:31.743Z,96941.69
2023-05-06T09:14:17.968Z,96950.50
2023-05-06T09:16:49.324Z,96946.88
2023-05-06T09:19:18.744Z,96950.19
2023-05-06T09:21:48.256Z,96943.00
2023-05-06T09:24:16.729Z,96941.91
2023-05-06T09:26:46.092Z,96938.91
2023-05-06T09:29:14.049Z,96939.22
2023-05-06T09:31:43.773Z,96938.75
2023-05-06T09:34:11.856Z,96945.97
2023-05-06T09:36:39.126Z,96938.75
2023-05-06T09:39:07.661Z,96934.22
2023-05-06T09:41:36.164Z,96938.09
2023-05-06T09:44:04.508Z,96935.88
2023-05-06T09:46:32.131Z,96934.56
2023-05-06T09:48:59.567Z,96926.75
2023-05-06T09:51:30.836Z,96924.59
2023-05-06T09:53:59.188Z,96931.97
2023-05-06T09:56:26.367Z,96924.97
2023-05-06T09:58:55.537Z,96924.75
2023-05-06T10:01:35.418Z,96924.88
2023-05-06T10:04:10.194Z,96916.03
2023-05-06T10:06:40.962Z,96914.66
2023-05-06T10:09:09.184Z,96913.53
2023-05-06T10:11:36.772Z,96911.31
2023-05-06T10:14:05.225Z,96905.53
2023-05-06T10:16:36.081Z,96908.75
2023-05-06T10:19:04.963Z,96912.00
2023-05-06T10:21:36.365Z,96904.53
2023-05-06T10:24:11.272Z,96903.34
2023-05-06T10:26:39.268Z,96905.06
2023-05-06T10:29:10.743Z,96894.66
2023-05-06T10:31:57.456Z,96892.25
2023-05-06T10:34:31.568Z,96892.25
2023-05-06T10:37:00.172Z,96894.44
2023-05-06T10:39:27.831Z,96878.50
2023-05-06T10:41:55.105Z,96879.19
2023-05-06T10:45:09.541Z,96879.06
2023-05-06T10:48:03.714Z,96864.19
2023-05-06T10:50:30.680Z,96867.50
2023-05-06T10:52:59.160Z,96869.34
2023-05-06T10:55:38.578Z,96863.13
2023-05-06T10:58:11.781Z,96865.38
2023-05-06T11:00:38.569Z,96854.63
2023-05-06T11:03:10.676Z,96857.56
2023-05-06T11:05:51.901Z,96853.22
2023-05-06T11:08:24.736Z,96854.25
2023-05-06T11:11:25.351Z,96851.53
2023-05-06T11:13:53.413Z,96859.88
2023-05-06T11:16:49.992Z,96853.63
2023-05-06T11:19:23.400Z,96851.06
2023-05-06T11:21:52.077Z,96846.59
2023-05-06T11:24:29.667Z,96849.41
2023-05-06T11:26:59.131Z,96849.25
2023-05-06T11:29:27.005Z,96847.13
2023-05-06T11:31:54.359Z,96837.38
2023-05-06T11:34:30.302Z,96841.50
2023-05-06T11:37:02.116Z,96843.38
2023-05-06T11:39:39.970Z,96837.06
2023-05-06T11:42:08.926Z,96841.09
2023-05-06T11:44:38.146Z,96843.97
2023-05-06T11:47:07.635Z,96848.75
2023-05-06T11:49:42.120Z,96850.75
2023-05-06T11:52:13.284Z,96851.38
2023-05-06T11:54:42.298Z,96848.44
2023-05-06T11:57:09.958Z,96849.34
2023-05-06T11:59:39.603Z,96836.50
2023-05-06T12:02:08.953Z,96842.53
2023-05-06T12:04:50.179Z,96835.19
2023-05-06T12:07:17.559Z,96840.78
2023-05-06T12:09:47.957Z,96840.19
2023-05-06T12:12:22.386Z,96842.38
2023-05-06T12:14:50.630Z,96844.34
2023-05-06T12:17:17.799Z,96837.47
2023-05-06T12:19:46.612Z,96840.22
2023-05-06T12:22:22.443Z,96842.16
2023-05-06T12:24:50.428Z,96838.94
2023-05-06T12:27:36.612Z,96836.72
2023-05-06T12:30:04.806Z,96832.97
2023-05-06T12:32:32.244Z,96836.63
2023-05-06T12:35:00.707Z,96833.91
2023-05-06T12:37:30.520Z,96831.47
2023-05-06T12:39:59.324Z,96833.69
2023-05-06T12:42:27.093Z,96822.50
2023-05-06T12:44:54.464Z,96831.38
2023-05-06T12:47:25.318Z,96829.16
2023-05-06T12:50:00.861Z,96821.53
2023-05-06T12:52:30.287Z,96831.47
2023-05-06T12:54:57.687Z,96828.19
2023-05-06T12:57:24.542Z,96832.91
2023-05-06T12:59:51.369Z,96824.97
2023-05-06T13:02:18.645Z,96829.44
2023-05-06T13:04:46.866Z,96822.56
2023-05-06T13:07:13.930Z,96811.91
2023-05-06T13:09:40.843Z,96807.59
2023-05-06T13:12:08.480Z,96799.63
2023-05-06T13:14:36.923Z,96803.00
2023-05-06T13:17:06.720Z,96801.69
2023-05-06T13:19:33.920Z,96789.59
2023-05-06T13:22:02.124Z,96784.97
2023-05-06T13:24:29.757Z,96783.91
2023-05-06T13:26:57.027Z,96789.72
2023-05-06T13:29:24.512Z,96774.28
2023-05-06T13:31:52.068Z,96780.38
2023-05-06T13:34:19.291Z,96773.50
2023-05-06T13:36:47.721Z,96778.72
2023-05-06T13:39:18.671Z,96779.25
2023-05-06T13:41:52.588Z,96783.94
2023-05-06T13:44:21.241Z,96772.06
2023-05-06T13:46:49.556Z,96770.13
2023-05-06T13:49:19.061Z,96771.75
2023-05-06T13:51:46.604Z,96771.72
2023-05-06T13:54:16.620Z,96763.41
2023-05-06T13:56:43.468Z,96765.34
2023-05-06T13:59:11.855Z,96766.41
2023-05-06T14:01:39.109Z,96761.44
2023-05-06T14:04:06.442Z,96761.16
2023-05-06T14:06:33.468Z,96749.84
2023-05-06T14:09:04.728Z,96753.72
2023-05-06T14:11:32.074Z,96749.06
2023-05-06T14:14:02.809Z,96768.91
2023-05-06T14:16:29.870Z,96752.66
2023-05-06T14:18:56.713Z,96749.41
2023-05-06T14:21:23.624Z,96753.53
2023-05-06T14:23:50.642Z,96746.94
2023-05-06T14:26:17.661Z,96738.91
2023-05-06T14:28:44.512Z,96745.56
2023-05-06T14:31:11.625Z,96741.16
2023-05-06T14:33:38.866Z,96735.38
2023-05-06T14:36:06.332Z,96729.03
2023-05-06T14:38:33.135Z,96731.81
2023-05-06T14:41:00.452Z,96733.72
2023-05-06T14:43:30.045Z,96726.81
2023-05-06T14:45:56.874Z,96729.84
2023-05-06T14:48:25.467Z,96731.81
2023-05-06T14:50:53.186Z,96723.00
2023-05-06T14:53:20.118Z,96730.41
2023-05-06T14:55:48.750Z,96729.59
2023-05-06T14:58:15.648Z,96721.31
2023-05-06T15:00:42.456Z,96722.97
2023-05-06T15:03:09.609Z,96724.06
2023-05-06T15:05:37.228Z,96719.09
2023-05-06T15:08:11.456Z,96715.19
2023-05-06T15:10:39.408Z,96716.63
2023-05-06T15:13:07.010Z,96722.13
2023-05-06T15:15:34.177Z,96718.00
2023-05-06T15:18:07.373Z,96717.47
2023-05-06T15:20:36.354Z,96719.13
2023-05-06T15:23:03.283Z,96721.34
2023-05-06T15:25:35.643Z,96718.28
2023-05-06T15:28:05.127Z,96723.28
2023-05-06T15:30:32.056Z,96723.84
2023-05-06T15:32:59.025Z,96723.00
2023-05-06T15:35:29.655Z,96726.88
2023-05-06T15:38:00.451Z,96724.09
2023-05-06T15:40:27.499Z,96725.50
2023-05-06T15:42:54.893Z,96731.28
2023-05-06T15:45:25.711Z,96728.81
2023-05-06T15:47:54.442Z,96719.41
2023-05-06T15:50:32.528Z,96722.19
2023-05-06T15:53:01.695Z,96724.66
2023-05-06T15:55:35.111Z,96715.81
2023-05-06T15:58:08.601Z,96716.06
2023-05-06T16:00:35.698Z,96721.06
2023-05-06T16:03:02.790Z,96716.09
2023-05-06T16:05:30.006Z,96717.75
2023-05-06T16:07:56.921Z,96712.81
2023-05-06T16:10:23.843Z,96716.38
2023-05-06T16:12:50.985Z,96714.72
2023-05-06T16:15:18.389Z,96711.13
2023-05-06T16:17:45.601Z,96709.50
2023-05-06T16:20:14.525Z,96713.91
2023-05-06T16:22:41.865Z,96717.22
2023-05-06T16:25:08.842Z,96712.53
2023-05-06T16:27:35.669Z,96711.69
2023-05-06T16:30:02.520Z,96711.44
2023-05-06T16:32:29.449Z,96709.50
2023-05-06T16:34:56.292Z,96708.63
2023-05-06T16:37:23.159Z,96711.13
2023-05-06T16:39:49.983Z,96705.03
2023-05-06T16:42:16.814Z,96708.31
2023-05-06T16:44:43.616Z,96703.56
2023-05-06T16:47:10.560Z,96700.75
2023-05-06T16:49:37.706Z,96699.53
2023-05-06T16:52:05.357Z,96695.03
2023-05-06T16:54:32.365Z,96696.56
2023-05-06T16:57:00.404Z,96693.63
2023-05-06T16:59:27.410Z,96696.75
2023-05-06T17:01:57.358Z,96694.59
2023-05-06T17:04:27.540Z,96690.81
2023-05-06T17:06:57.559Z,96685.13
2023-05-06T17:09:24.747Z,96690.47
2023-05-06T17:11:51.565Z,96686.19
2023-05-06T17:14:19.768Z,96679.72
2023-05-06T17:16:47.232Z,96685.94
2023-05-06T17:19:14.648Z,96683.38
2023-05-06T17:21:41.658Z,96677.22
2023-05-06T17:24:08.841Z,96678.75
2023-05-06T17:26:35.939Z,96679.78
2023-05-06T17:29:02.868Z,96679.47
2023-05-06T17:31:29.757Z,96676.41
2023-05-06T17:33:57.466Z,96674.16
2023-05-06T17:36:24.305Z,96675.81
2023-05-06T17:39:05.405Z,96673.22
2023-05-06T17:41:33.398Z,96674.97
2023-05-06T17:44:00.238Z,96664.00
2023-05-06T17:46:27.281Z,96667.84
2023-05-06T17:48:57.344Z,96672.13
2023-05-06T17:51:30.951Z,96663.59
2023-05-06T17:54:00.649Z,96674.81
2023-05-06T17:56:27.575Z,96672.84
2023-05-06T17:58:54.516Z,96679.91
2023-05-06T18:01:21.397Z,96672.69
2023-05-06T18:03:48.283Z,96677.53
2023-05-06T18:06:19.265Z,96680.69
2023-05-06T18:08:46.714Z,96677.28
2023-05-06T18:11:14.592Z,96678.53
2023-05-06T18:16:23.904Z,96684.00
2023-05-06T18:19:00.913Z,96684.53
2023-05-06T18:21:30.843Z,96685.56
2023-05-06T18:24:10.253Z,96684.00
2023-05-06T18:26:45.224Z,96685.09
2023-05-06T18:29:12.926Z,96694.44
2023-05-06T18:31:39.840Z,96698.50
2023-05-06T18:34:06.711Z,96701.53
2023-05-06T18:36:35.092Z,96700.97
2023-05-06T18:39:03.353Z,96703.13
2023-05-06T18:41:30.712Z,96697.91
2023-05-06T18:43:57.515Z,96705.53
2023-05-06T18:46:24.574Z,96704.94
2023-05-06T18:48:51.512Z,96701.84
2023-05-06T18:51:18.366Z,96711.31
2023-05-06T18:53:45.517Z,96706.09
2023-05-06T18:56:14.059Z,96714.47
2023-05-06T18:58:43.394Z,96713.59
2023-05-06T19:01:18.029Z,96719.97
2023-05-06T19:03:53.581Z,96716.56
2023-05-06T19:06:22.654Z,96722.72
2023-05-06T19:08:50.763Z,96728.06
2023-05-06T19:11:18.916Z,96728.84
2023-05-06T19:13:46.085Z,96732.09
2023-05-06T19:16:13.803Z,96734.06
2023-05-06T19:18:41.495Z,96729.75
2023-05-06T19:21:15.560Z,96739.53
2023-05-06T19:23:42.929Z,96736.41
2023-05-06T19:26:11.327Z,96733.16
2023-05-06T19:28:40.323Z,96733.41
2023-05-06T19:31:11.115Z,96740.19
2023-05-06T19:33:39.200Z,96730.78
2023-05-06T19:36:06.510Z,96734.19
2023-05-06T19:38:33.986Z,96729.66
2023-05-06T19:41:01.056Z,96731.97
2023-05-06T19:43:27.961Z,96722.81
2023-05-06T19:45:54.862Z,96729.78
2023-05-06T19:48:23.634Z,96734.00
2023-05-06T19:50:53.709Z,96730.25
2023-05-06T19:53:22.485Z,96737.69
2023-05-06T19:55:49.308Z,96732.22
2023-05-06T19:58:17.152Z,96739.16
2023-05-06T20:00:46.976Z,96736.25
2023-05-06T20:03:14.075Z,96731.69
2023-05-06T20:05:41.900Z,96734.25
2023-05-06T20:08:11.381Z,96732.34
2023-05-06T20:10:38.489Z,96732.19
2023-05-06T20:13:06.685Z,96730.97
2023-05-06T20:15:35.775Z,96733.50
2023-05-06T20:18:02.901Z,96736.03
2023-05-06T20:20:34.638Z,96731.03
2023-05-06T20:23:02.811Z,96735.69
2023-05-06T20:25:30.166Z,96738.00
2023-05-06T20:27:59.786Z,96737.00
2023-05-06T20:30:26.839Z,96731.97
2023-05-06T20:32:53.918Z,96739.72
2023-05-06T20:35:21.921Z,96735.78
2023-05-06T20:37:49.175Z,96732.88
2023-05-06T20:40:16.150Z,96733.53
2023-05-06T20:42:42.972Z,96748.59
2023-05-06T20:45:10.505Z,96747.78
2023-05-06T20:47:37.853Z,96744.06
2023-05-06T20:50:05.778Z,96745.69
2023-05-06T20:52:33.878Z,96741.13
2023-05-06T20:55:01.048Z,96740.94
2023-05-06T20:57:28.340Z,96733.84
2023-05-06T20:59:56.069Z,96729.06
2023-05-06T21:02:22.932Z,96722.56
2023-05-06T21:04:49.858Z,96721.53
2023-05-06T21:07:17.767Z,96729.91
2023-05-06T21:09:44.556Z,96724.28
2023-05-06T21:12:11.380Z,96731.41
2023-05-06T21:14:41.123Z,96731.63
2023-05-06T21:17:08.580Z,96723.91
2023-05-06T21:19:38.405Z,96721.81
2023-05-06T21:22:10.377Z,96721.63
2023-05-06T21:24:38.431Z,96720.75
2023-05-06T21:27:09.286Z,96713.66
2023-05-06T21:29:37.169Z,96717.00
2023-05-06T21:32:08.277Z,96715.09
2023-05-06T21:34:35.437Z,96721.16
2023-05-06T21:37:02.278Z,96722.00
2023-05-06T21:39:29.770Z,96714.88
2023-05-06T21:41:57.802Z,96713.00
2023-05-06T21:44:25.358Z,96715.50
2023-05-06T21:46:52.905Z,96711.75
2023-05-06T21:49:22.264Z,96713.19
2023-05-06T21:51:49.482Z,96709.44
2023-05-06T21:54:20.821Z,96709.84
2023-05-06T21:56:48.165Z,96703.97
2023-05-06T21:59:16.400Z,96697.09
2023-05-06T22:01:43.947Z,96702.94
2023-05-06T22:04:15.283Z,96708.75
2023-05-06T22:06:42.405Z,96706.66
2023-05-06T22:09:09.953Z,96705.38
2023-05-06T22:11:38.724Z,96711.41
2023-05-06T22:14:06.470Z,96705.56
2023-05-06T22:16:35.721Z,96703.25
2023-05-06T22:19:04.802Z,96703.66
2023-05-06T22:21:33.406Z,96710.50
2023-05-06T22:24:01.100Z,96709.06
2023-05-06T22:26:28.863Z,96702.38
2023-05-06T22:28:56.780Z,96706.53
2023-05-06T22:31:25.236Z,96706.94
2023-05-06T22:33:59.711Z,96708.75
2023-05-06T22:36:29.361Z,96706.47
2023-05-06T22:38:57.544Z,96719.38
2023-05-06T22:41:24.875Z,96723.53
2023-05-06T22:43:58.210Z,96723.28
2023-05-06T22:46:25.612Z,96717.66
2023-05-06T22:48:54.204Z,96713.66
2023-05-06T22:51:21.579Z,96709.69
2023-05-06T22:53:49.179Z,96706.72
2023-05-06T22:56:17.241Z,96704.44
2023-05-06T22:58:44.467Z,96704.81
2023-05-06T23:01:12.587Z,96714.16
2023-05-06T23:03:40.617Z,96709.34
2023-05-06T23:06:07.654Z,96709.75
2023-05-06T23:08:35.166Z,96716.38
2023-05-06T23:11:02.371Z,96707.81
2023-05-06T23:13:31.433Z,96710.91
2023-05-06T23:15:58.871Z,96716.91
2023-05-06T23:18:25.712Z,96720.88
2023-05-06T23:20:56.205Z,96712.50
2023-05-06T23:23:23.304Z,96712.69
2023-05-06T23:25:57.028Z,96709.75
2023-05-06T23:28:24.765Z,96709.94
2023-05-06T23:30:52.542Z,96717.41
2023-05-06T23:33:20.313Z,96720.50
2023-05-06T23:35:47.371Z,96715.47
2023-05-06T23:38:15.230Z,96717.56
2023-05-06T23:40:42.492Z,96716.28
2023-05-06T23:43:11.951Z,96715.81
2023-05-06T23:45:40.094Z,96701.03
2023-05-06T23:48:07.517Z,96702.22
2023-05-06T23:50:34.866Z,96707.03
2023-05-06T23:53:02.501Z,96706.56
2023-05-06T23:55:29.517Z,96702.38
2023-05-06T23:57:59.542Z,96700.25
